»·PEaware :: N1CE KAJO-KVCV

N1CE :: KAJO-KVCV

FLIGHT INFORMATION

Flight Status: Arrived
Operator: Privately registered:
United States
More flights under this callsign
Pilot: Shay T. (30528)
Aircraft: CESSNA 172 SKYHAWK
(C172)
More flights by this aircraft type
Origin: KAJO Corona Mun
United States
Destination: KVCV Socal Logistics
United States
More flights between these airports :: More routes between these airports
Route: PDZ V442 APLES
File this flight plan on PilotEdge
Remarks:
Altitude:
(Current/Filed)
11,000ft
Speed:
(Current/Filed)
100kts
Departed: 09-Oct-20 05:48 PM
Arrived: 09-Oct-20 06:53 PM
Distance/Time
Traveled:
0nm/1:05
Distance/Time
To Go:
Arrived

Flight Plot

Page will automatically refresh every two minutes.


Map Options




Map Legend


Flown Route
Filed Route
Departure Airport
Arrival Airport
Navaid (VOR, NDB)
Fix

Horizontal Profiles

Position Reports

Time Latitude Longitude Heading Altitude Ground
Speed
09-Oct-20 17:22 33.896979 -117.607296 343 537ft 0kts
09-Oct-20 17:23 33.896979 -117.607296 343 537ft 0kts
09-Oct-20 17:24 33.896979 -117.607296 343 537ft 0kts
09-Oct-20 17:25 33.896979 -117.607296 343 537ft 0kts
09-Oct-20 17:26 33.896979 -117.607296 343 537ft 0kts
09-Oct-20 17:27 33.896979 -117.607296 343 537ft 0kts
09-Oct-20 17:28 33.896979 -117.607296 343 537ft 0kts
09-Oct-20 17:29 33.896979 -117.607296 343 537ft 0kts
09-Oct-20 17:30 33.896979 -117.607296 343 537ft 0kts
09-Oct-20 17:31 33.896979 -117.607296 343 537ft 0kts
09-Oct-20 17:32 33.896979 -117.607296 343 537ft 0kts
09-Oct-20 17:33 33.896979 -117.607296 343 537ft 0kts
09-Oct-20 17:34 33.896979 -117.607296 343 537ft 0kts
09-Oct-20 17:35 33.896979 -117.607296 343 537ft 0kts
09-Oct-20 17:36 33.896979 -117.607296 343 537ft 0kts
09-Oct-20 17:37 33.896979 -117.607296 343 537ft 0kts
09-Oct-20 17:38 33.896979 -117.607296 343 537ft 0kts
09-Oct-20 17:39 33.896979 -117.607296 343 537ft 0kts
09-Oct-20 17:40 33.896979 -117.607296 343 537ft 0kts
09-Oct-20 17:41 33.897028 -117.607315 340 537ft 4kts
09-Oct-20 17:42 33.897176 -117.607354 3 537ft 0kts
09-Oct-20 17:43 33.897176 -117.607354 3 537ft 0kts
09-Oct-20 17:44 33.897176 -117.607354 3 537ft 0kts
09-Oct-20 17:46 33.897176 -117.607354 3 537ft 0kts
09-Oct-20 17:47 33.897422 -117.607334 8 537ft 4kts
09-Oct-20 17:48 33.897900 -117.593131 76 734ft 83kts
09-Oct-20 17:49 33.907309 -117.569183 72 1722ft 84kts
09-Oct-20 17:50 33.913958 -117.542868 74 2669ft 83kts
09-Oct-20 17:51 33.924548 -117.518681 40 3545ft 81kts
09-Oct-20 17:52 33.939570 -117.497611 37 4359ft 83kts
09-Oct-20 17:53 33.946303 -117.508397 199 5070ft 84kts
09-Oct-20 17:54 33.927736 -117.518863 220 5855ft 73kts
09-Oct-20 17:55 33.917448 -117.538027 309 6518ft 78kts
09-Oct-20 17:56 33.935345 -117.524424 39 7285ft 86kts
09-Oct-20 17:57 33.948402 -117.499817 108 7940ft 100kts
09-Oct-20 17:58 33.931875 -117.506369 238 8659ft 80kts
09-Oct-20 17:59 33.919879 -117.528371 243 9330ft 80kts
09-Oct-20 18:00 33.924900 -117.544429 29 9920ft 94kts
09-Oct-20 18:01 33.940943 -117.519449 43 10537ft 95kts
09-Oct-20 18:02 33.962427 -117.501299 20 10972ft 106kts
09-Oct-20 18:03 33.990782 -117.483624 21 10982ft 114kts
09-Oct-20 18:04 34.018486 -117.464097 18 11035ft 118kts
09-Oct-20 18:04 34.044578 -117.448282 24 11023ft 134kts
09-Oct-20 18:05 34.076760 -117.425078 21 11049ft 134kts
09-Oct-20 18:06 34.111317 -117.407441 24 11046ft 135kts
09-Oct-20 18:07 34.144777 -117.386799 17 11045ft 135kts
09-Oct-20 18:08 34.176908 -117.362658 34 11005ft 138kts
09-Oct-20 18:09 34.210942 -117.343600 22 11014ft 135kts
09-Oct-20 18:10 34.242950 -117.319451 29 11015ft 136kts
09-Oct-20 18:11 34.275929 -117.297884 16 11024ft 133kts
09-Oct-20 18:12 34.311408 -117.285308 12 11033ft 133kts
09-Oct-20 18:13 34.346025 -117.269694 20 11065ft 133kts
09-Oct-20 18:14 34.380597 -117.252831 20 11019ft 135kts
09-Oct-20 18:15 34.414517 -117.234006 24 11032ft 135kts
09-Oct-20 18:16 34.445682 -117.212356 29 10532ft 128kts
09-Oct-20 18:17 34.474385 -117.187257 29 9842ft 126kts
09-Oct-20 18:18 34.503608 -117.163468 23 9075ft 126kts
09-Oct-20 18:19 34.534665 -117.143437 21 8995ft 125kts
09-Oct-20 18:20 34.567045 -117.127295 8 8656ft 128kts
09-Oct-20 18:21 34.600461 -117.129660 328 8024ft 118kts
09-Oct-20 18:22 34.629834 -117.148240 331 7384ft 120kts
09-Oct-20 18:23 34.661533 -117.161118 343 6796ft 121kts
09-Oct-20 18:24 34.693298 -117.173937 328 6211ft 119kts
09-Oct-20 18:25 34.721646 -117.194282 317 6070ft 118kts
09-Oct-20 18:26 34.747296 -117.218936 307 6072ft 117kts
09-Oct-20 18:27 34.765234 -117.251171 298 6063ft 115kts
09-Oct-20 18:28 34.781119 -117.284834 294 5991ft 106kts
09-Oct-20 18:29 34.794536 -117.319800 286 5287ft 119kts
09-Oct-20 18:30 34.797983 -117.355638 230 5183ft 89kts
09-Oct-20 18:31 34.773152 -117.365220 207 4622ft 96kts
09-Oct-20 18:32 34.750056 -117.377357 190 3582ft 86kts
09-Oct-20 18:33 34.729110 -117.379370 184 4432ft 86kts
09-Oct-20 18:34 34.703417 -117.382763 186 4519ft 94kts
09-Oct-20 18:35 34.677969 -117.386975 186 4113ft 94kts
09-Oct-20 18:36 34.652480 -117.388556 176 3281ft 89kts
09-Oct-20 18:37 34.625665 -117.387324 186 3282ft 96kts
09-Oct-20 18:38 34.604596 -117.401048 254 4006ft 101kts
09-Oct-20 18:39 34.617781 -117.431495 265 4579ft 112kts
09-Oct-20 18:40 34.612954 -117.464636 251 5322ft 101kts
09-Oct-20 18:41 34.616382 -117.497632 286 5929ft 105kts
09-Oct-20 18:42 34.628191 -117.531728 293 6049ft 110kts
09-Oct-20 18:43 34.643834 -117.564731 283 5973ft 112kts
09-Oct-20 18:44 34.651482 -117.597761 343 5600ft 122kts
09-Oct-20 18:45 34.654955 -117.569510 134 4142ft 107kts
09-Oct-20 18:46 34.641826 -117.536981 113 3906ft 116kts
09-Oct-20 18:47 34.636006 -117.496251 86 4156ft 128kts
09-Oct-20 18:48 34.643020 -117.450317 84 3910ft 145kts
09-Oct-20 18:49 34.644570 -117.410628 97 3559ft 85kts
09-Oct-20 18:50 34.642349 -117.388101 141 3271ft 58kts
09-Oct-20 18:51 34.625744 -117.386887 179 2950ft 61kts
09-Oct-20 18:52 34.615970 -117.385088 81 2824ft 8kts
09-Oct-20 18:53 34.614117 -117.384212 180 2827ft 43kts
09-Oct-20 18:54 34.598821 -117.384086 179 2850ft 61kts
09-Oct-20 18:55 34.589599 -117.377623 131 2873ft 28kts
09-Oct-20 18:56 34.588293 -117.375553 325 2876ft 8kts
09-Oct-20 18:57 34.588630 -117.375810 325 2875ft 0kts
09-Oct-20 18:58 34.588630 -117.375810 325 2875ft 0kts
09-Oct-20 18:59 33.896979 -117.607296 1 537ft 0kts
09-Oct-20 19:00 33.896979 -117.607296 1 537ft 0kts
09-Oct-20 19:01 33.896979 -117.607296 1 537ft 0kts
09-Oct-20 19:02 33.896979 -117.607296 1 537ft 0kts
09-Oct-20 19:03 33.896979 -117.607296 1 537ft 0kts
09-Oct-20 19:04 33.896979 -117.607296 1 537ft 0kts
09-Oct-20 19:05 33.896979 -117.607296 1 537ft 0kts
09-Oct-20 19:06 33.897154 -117.607301 3 537ft 0kts

Navigation Log

Ident Type
Flight plan parsing failed, navigation log unavailable